Danville, Virginia
Current Conditions -  °F | °C
As of 9:53 PM on Saturday 25 Oct 2014 (Local Time) from KDAN Reporting Station
Clear Clear  
Wind Chill: 53°   Ceiling: Unl
Heat Index: 53°   Visibility: 10mi
Dew Point: 45°   Wind: 3mph
Humidity: 74%   Direction: 220°SW
Pressure: 29.88"   Gusts: NA
Location:  36.59°N, 79.42°W
Report Text: KDAN 260153Z AUTO 22003KT 10SM CLR 12/07 A2988 RMK AO2 SLP110 T01170072
Loading
Personal Weather Stations






























Interactive Weather Map New forecast layout! Learn more

10-Day Weather Forecast

Advertisements
Track Severe Weather on mobile